sensor_id;sensor_type;location;lat;lon;timestamp;pressure;altitude;pressure_sealevel;temperature;humidity
54122;BME280;40029;58.708;50.190;2024-01-15T00:01:22;99073.81;;;-16.27;75.16
54122;BME280;40029;58.708;50.190;2024-01-15T00:03:54;99069.69;;;-16.25;75.10
54122;BME280;40029;58.708;50.190;2024-01-15T00:06:25;99068.91;;;-16.24;75.15
54122;BME280;40029;58.708;50.190;2024-01-15T00:09:16;99077.19;;;-16.27;75.23
54122;BME280;40029;58.708;50.190;2024-01-15T00:11:47;99082.34;;;-16.25;75.48
54122;BME280;40029;58.708;50.190;2024-01-15T00:14:37;99069.38;;;-16.31;75.50
54122;BME280;40029;58.708;50.190;2024-01-15T00:17:08;99066.44;;;-16.23;75.60
54122;BME280;40029;58.708;50.190;2024-01-15T00:19:58;99062.25;;;-16.39;76.03
54122;BME280;40029;58.708;50.190;2024-01-15T00:22:29;99056.75;;;-16.15;75.88
54122;BME280;40029;58.708;50.190;2024-01-15T00:25:02;99049.91;;;-16.16;75.66
54122;BME280;40029;58.708;50.190;2024-01-15T00:27:51;99050.84;;;-16.30;76.00
54122;BME280;40029;58.708;50.190;2024-01-15T00:30:22;99056.25;;;-16.24;76.29
54122;BME280;40029;58.708;50.190;2024-01-15T00:32:54;99070.16;;;-16.16;75.85
54122;BME280;40029;58.708;50.190;2024-01-15T00:35:25;99063.91;;;-16.23;75.98
54122;BME280;40029;58.708;50.190;2024-01-15T00:37:56;99057.97;;;-16.23;76.43
54122;BME280;40029;58.708;50.190;2024-01-15T00:40:27;99059.00;;;-16.20;76.03
54122;BME280;40029;58.708;50.190;2024-01-15T00:42:59;99066.13;;;-16.13;76.16
54122;BME280;40029;58.708;50.190;2024-01-15T00:45:30;99054.59;;;-16.07;76.00
54122;BME280;40029;58.708;50.190;2024-01-15T00:48:01;99044.00;;;-16.17;76.10
54122;BME280;40029;58.708;50.190;2024-01-15T00:50:51;99040.25;;;-16.07;75.55
54122;BME280;40029;58.708;50.190;2024-01-15T00:53:22;99040.25;;;-16.07;75.68
54122;BME280;40029;58.708;50.190;2024-01-15T00:55:54;99050.69;;;-16.01;75.52
54122;BME280;40029;58.708;50.190;2024-01-15T00:58:26;99042.78;;;-16.07;75.51
54122;BME280;40029;58.708;50.190;2024-01-15T01:00:57;99046.53;;;-16.00;75.66
54122;BME280;40029;58.708;50.190;2024-01-15T01:03:28;99047.38;;;-16.00;75.73
54122;BME280;40029;58.708;50.190;2024-01-15T01:05:59;99043.09;;;-15.84;75.43
54122;BME280;40029;58.708;50.190;2024-01-15T01:08:49;99035.34;;;-15.87;75.17
54122;BME280;40029;58.708;50.190;2024-01-15T01:11:20;99034.72;;;-15.83;75.41
54122;BME280;40029;58.708;50.190;2024-01-15T01:13:51;99035.44;;;-15.68;75.31
54122;BME280;40029;58.708;50.190;2024-01-15T01:16:22;99042.09;;;-15.70;75.42
54122;BME280;40029;58.708;50.190;2024-01-15T01:18:54;99033.53;;;-15.72;75.47
54122;BME280;40029;58.708;50.190;2024-01-15T01:21:25;99044.91;;;-15.64;75.27
54122;BME280;40029;58.708;50.190;2024-01-15T01:23:56;99034.63;;;-15.50;75.20
54122;BME280;40029;58.708;50.190;2024-01-15T01:26:27;99034.38;;;-15.55;75.26
54122;BME280;40029;58.708;50.190;2024-01-15T01:28:59;99033.66;;;-15.52;75.90
54122;BME280;40029;58.708;50.190;2024-01-15T01:31:30;99030.56;;;-15.47;75.86
54122;BME280;40029;58.708;50.190;2024-01-15T01:34:20;99028.88;;;-15.46;76.06
54122;BME280;40029;58.708;50.190;2024-01-15T01:37:10;99035.19;;;-15.38;75.79
54122;BME280;40029;58.708;50.190;2024-01-15T01:39:45;99023.44;;;-15.36;75.94
54122;BME280;40029;58.708;50.190;2024-01-15T01:42:16;99027.81;;;-15.33;75.66
54122;BME280;40029;58.708;50.190;2024-01-15T01:44:48;99026.44;;;-15.27;75.86
54122;BME280;40029;58.708;50.190;2024-01-15T01:47:19;99028.03;;;-15.11;75.51
54122;BME280;40029;58.708;50.190;2024-01-15T01:49:50;99021.53;;;-15.24;75.56
54122;BME280;40029;58.708;50.190;2024-01-15T01:52:22;99015.44;;;-15.09;75.24
54122;BME280;40029;58.708;50.190;2024-01-15T01:54:53;99010.78;;;-15.00;75.44
54122;BME280;40029;58.708;50.190;2024-01-15T01:57:44;99005.22;;;-14.93;75.43
54122;BME280;40029;58.708;50.190;2024-01-15T02:00:34;99003.78;;;-14.88;75.27
54122;BME280;40029;58.708;50.190;2024-01-15T02:03:25;99001.06;;;-14.91;75.32
54122;BME280;40029;58.708;50.190;2024-01-15T02:05:59;98996.66;;;-14.95;75.45
54122;BME280;40029;58.708;50.190;2024-01-15T02:08:30;99000.72;;;-14.81;75.36
54122;BME280;40029;58.708;50.190;2024-01-15T02:11:02;98995.16;;;-14.72;75.13
54122;BME280;40029;58.708;50.190;2024-01-15T02:13:33;99000.13;;;-14.75;75.65
54122;BME280;40029;58.708;50.190;2024-01-15T02:16:04;98991.00;;;-14.71;75.41
54122;BME280;40029;58.708;50.190;2024-01-15T02:18:56;98995.97;;;-14.73;75.59
54122;BME280;40029;58.708;50.190;2024-01-15T02:21:45;98999.22;;;-14.75;75.40
54122;BME280;40029;58.708;50.190;2024-01-15T02:24:18;98992.28;;;-14.80;75.59
54122;BME280;40029;58.708;50.190;2024-01-15T02:26:49;98991.25;;;-14.65;75.45
54122;BME280;40029;58.708;50.190;2024-01-15T02:29:20;98986.56;;;-14.56;75.60
54122;BME280;40029;58.708;50.190;2024-01-15T02:31:52;98987.78;;;-14.67;75.93
54122;BME280;40029;58.708;50.190;2024-01-15T02:34:23;98985.03;;;-14.72;76.14
54122;BME280;40029;58.708;50.190;2024-01-15T02:40:20;98981.47;;;-14.75;76.47
54122;BME280;40029;58.708;50.190;2024-01-15T02:43:10;98978.75;;;-14.61;75.96
54122;BME280;40029;58.708;50.190;2024-01-15T02:45:41;98977.75;;;-14.64;76.09
54122;BME280;40029;58.708;50.190;2024-01-15T02:48:30;98978.41;;;-14.68;76.24
54122;BME280;40029;58.708;50.190;2024-01-15T02:51:01;98967.03;;;-14.59;76.20
54122;BME280;40029;58.708;50.190;2024-01-15T02:53:33;98961.06;;;-14.59;76.41
54122;BME280;40029;58.708;50.190;2024-01-15T02:56:04;98967.31;;;-14.51;76.40
54122;BME280;40029;58.708;50.190;2024-01-15T02:58:55;98966.66;;;-14.66;76.46
54122;BME280;40029;58.708;50.190;2024-01-15T03:01:26;98969.28;;;-14.65;76.46
54122;BME280;40029;58.708;50.190;2024-01-15T03:07:06;98972.66;;;-14.64;76.56
54122;BME280;40029;58.708;50.190;2024-01-15T03:09:37;98967.59;;;-14.64;76.47
54122;BME280;40029;58.708;50.190;2024-01-15T03:12:08;98966.88;;;-14.62;76.48
54122;BME280;40029;58.708;50.190;2024-01-15T03:14:58;98975.88;;;-14.49;76.13
54122;BME280;40029;58.708;50.190;2024-01-15T03:17:48;98974.00;;;-14.53;76.23
54122;BME280;40029;58.708;50.190;2024-01-15T03:20:19;98971.31;;;-14.56;76.13
54122;BME280;40029;58.708;50.190;2024-01-15T03:22:50;98967.66;;;-14.43;76.41
54122;BME280;40029;58.708;50.190;2024-01-15T03:25:21;98966.63;;;-14.68;76.67
54122;BME280;40029;58.708;50.190;2024-01-15T03:28:11;98971.28;;;-14.58;76.27
54122;BME280;40029;58.708;50.190;2024-01-15T03:30:42;98974.13;;;-14.50;76.40
54122;BME280;40029;58.708;50.190;2024-01-15T03:33:14;98962.88;;;-14.55;76.52
54122;BME280;40029;58.708;50.190;2024-01-15T03:35:45;98958.09;;;-14.49;76.41
54122;BME280;40029;58.708;50.190;2024-01-15T03:38:16;98958.09;;;-14.49;76.69
54122;BME280;40029;58.708;50.190;2024-01-15T03:41:06;98962.50;;;-14.45;76.15
54122;BME280;40029;58.708;50.190;2024-01-15T03:43:56;98961.31;;;-14.53;76.51
54122;BME280;40029;58.708;50.190;2024-01-15T03:46:28;98969.97;;;-14.48;76.61
54122;BME280;40029;58.708;50.190;2024-01-15T03:48:59;98960.34;;;-14.55;77.00
54122;BME280;40029;58.708;50.190;2024-01-15T03:51:30;98968.97;;;-14.51;77.03
54122;BME280;40029;58.708;50.190;2024-01-15T03:54:01;98970.59;;;-14.34;76.70
54122;BME280;40029;58.708;50.190;2024-01-15T03:56:51;98964.78;;;-14.31;76.64
54122;BME280;40029;58.708;50.190;2024-01-15T03:59:22;98962.22;;;-14.31;76.66
54122;BME280;40029;58.708;50.190;2024-01-15T04:01:54;98958.97;;;-14.29;76.60
54122;BME280;40029;58.708;50.190;2024-01-15T04:04:26;98957.97;;;-14.32;76.66
54122;BME280;40029;58.708;50.190;2024-01-15T04:06:57;98956.44;;;-14.29;76.13
54122;BME280;40029;58.708;50.190;2024-01-15T04:12:18;98957.75;;;-14.37;75.87
54122;BME280;40029;58.708;50.190;2024-01-15T04:14:49;98952.91;;;-14.32;75.92
54122;BME280;40029;58.708;50.190;2024-01-15T04:17:20;98951.81;;;-14.38;75.62
54122;BME280;40029;58.708;50.190;2024-01-15T04:19:52;98954.75;;;-14.28;75.57
54122;BME280;40029;58.708;50.190;2024-01-15T04:22:23;98951.97;;;-14.34;75.42
54122;BME280;40029;58.708;50.190;2024-01-15T04:25:13;98953.00;;;-14.29;75.34
54122;BME280;40029;58.708;50.190;2024-01-15T04:28:03;98953.81;;;-14.30;75.45
54122;BME280;40029;58.708;50.190;2024-01-15T04:30:34;98952.97;;;-14.31;74.98
54122;BME280;40029;58.708;50.190;2024-01-15T04:33:05;98945.66;;;-14.23;75.23
54122;BME280;40029;58.708;50.190;2024-01-15T04:35:37;98948.22;;;-14.23;75.55
54122;BME280;40029;58.708;50.190;2024-01-15T04:38:08;98945.91;;;-14.17;74.92
54122;BME280;40029;58.708;50.190;2024-01-15T04:40:57;98934.53;;;-14.06;75.24
54122;BME280;40029;58.708;50.190;2024-01-15T04:43:29;98933.75;;;-14.05;74.79
54122;BME280;40029;58.708;50.190;2024-01-15T04:46:00;98933.38;;;-13.93;74.29
54122;BME280;40029;58.708;50.190;2024-01-15T04:48:50;98938.00;;;-14.04;75.26
54122;BME280;40029;58.708;50.190;2024-01-15T04:51:21;98939.50;;;-14.09;74.57
54122;BME280;40029;58.708;50.190;2024-01-15T04:53:52;98936.97;;;-14.09;74.89
54122;BME280;40029;58.708;50.190;2024-01-15T04:56:23;98941.63;;;-13.99;74.62
54122;BME280;40029;58.708;50.190;2024-01-15T04:59:13;98943.91;;;-14.05;74.27
54122;BME280;40029;58.708;50.190;2024-01-15T05:01:45;98939.63;;;-14.06;73.85
54122;BME280;40029;58.708;50.190;2024-01-15T05:04:16;98936.16;;;-14.08;74.56
54122;BME280;40029;58.708;50.190;2024-01-15T05:07:06;98934.81;;;-14.00;74.44
54122;BME280;40029;58.708;50.190;2024-01-15T05:09:38;98931.75;;;-13.91;74.46
54122;BME280;40029;58.708;50.190;2024-01-15T05:12:09;98940.00;;;-13.96;74.28
54122;BME280;40029;58.708;50.190;2024-01-15T05:17:30;98941.75;;;-13.95;74.04
54122;BME280;40029;58.708;50.190;2024-01-15T05:20:01;98946.94;;;-13.92;74.49
54122;BME280;40029;58.708;50.190;2024-01-15T05:22:52;98941.84;;;-13.92;74.21
54122;BME280;40029;58.708;50.190;2024-01-15T05:25:42;98943.47;;;-13.94;75.21
54122;BME280;40029;58.708;50.190;2024-01-15T05:28:14;98947.44;;;-14.01;75.08
54122;BME280;40029;58.708;50.190;2024-01-15T05:31:04;98943.16;;;-14.02;75.63
54122;BME280;40029;58.708;50.190;2024-01-15T05:33:36;98946.44;;;-14.05;76.05
54122;BME280;40029;58.708;50.190;2024-01-15T05:36:08;98952.38;;;-14.04;75.88
54122;BME280;40029;58.708;50.190;2024-01-15T05:38:39;98953.13;;;-14.07;75.89
54122;BME280;40029;58.708;50.190;2024-01-15T05:41:29;98960.09;;;-14.03;76.34
54122;BME280;40029;58.708;50.190;2024-01-15T05:44:19;98960.22;;;-14.00;75.91
54122;BME280;40029;58.708;50.190;2024-01-15T05:47:09;98960.25;;;-13.98;75.58
54122;BME280;40029;58.708;50.190;2024-01-15T05:49:40;98960.47;;;-13.93;76.22
54122;BME280;40029;58.708;50.190;2024-01-15T05:52:11;98954.53;;;-13.94;75.97
54122;BME280;40029;58.708;50.190;2024-01-15T05:54:42;98961.41;;;-13.91;75.71
54122;BME280;40029;58.708;50.190;2024-01-15T05:57:14;98961.00;;;-13.81;75.35
54122;BME280;40029;58.708;50.190;2024-01-15T05:59:45;98958.25;;;-13.86;75.43
54122;BME280;40029;58.708;50.190;2024-01-15T06:02:16;98952.28;;;-13.86;75.44
54122;BME280;40029;58.708;50.190;2024-01-15T06:04:47;98956.63;;;-13.84;75.39
54122;BME280;40029;58.708;50.190;2024-01-15T06:07:18;98949.81;;;-13.85;75.69
54122;BME280;40029;58.708;50.190;2024-01-15T06:09:49;98953.41;;;-13.80;75.72
54122;BME280;40029;58.708;50.190;2024-01-15T06:12:21;98959.00;;;-13.88;75.90
54122;BME280;40029;58.708;50.190;2024-01-15T06:14:52;98964.84;;;-13.70;75.58
54122;BME280;40029;58.708;50.190;2024-01-15T06:17:23;98958.00;;;-13.71;75.36
54122;BME280;40029;58.708;50.190;2024-01-15T06:19:54;98960.41;;;-13.74;75.20
54122;BME280;40029;58.708;50.190;2024-01-15T06:22:25;98952.91;;;-13.71;75.13
54122;BME280;40029;58.708;50.190;2024-01-15T06:24:57;98958.25;;;-13.65;75.37
54122;BME280;40029;58.708;50.190;2024-01-15T06:27:28;98960.22;;;-13.57;75.01
54122;BME280;40029;58.708;50.190;2024-01-15T06:30:00;98962.41;;;-13.67;74.47
54122;BME280;40029;58.708;50.190;2024-01-15T06:35:21;98964.84;;;-13.70;74.53
54122;BME280;40029;58.708;50.190;2024-01-15T06:38:11;98963.13;;;-13.48;74.32
54122;BME280;40029;58.708;50.190;2024-01-15T06:41:00;98965.56;;;-13.30;74.03
54122;BME280;40029;58.708;50.190;2024-01-15T06:43:32;98970.50;;;-13.33;73.55
54122;BME280;40029;58.708;50.190;2024-01-15T06:46:43;98972.31;;;-13.31;73.33
54122;BME280;40029;58.708;50.190;2024-01-15T06:49:14;98973.56;;;-13.19;73.14
54122;BME280;40029;58.708;50.190;2024-01-15T06:51:46;98972.31;;;-13.31;72.83
54122;BME280;40029;58.708;50.190;2024-01-15T06:54:17;98983.19;;;-13.35;72.49
54122;BME280;40029;58.708;50.190;2024-01-15T06:56:48;98980.44;;;-13.39;72.85
54122;BME280;40029;58.708;50.190;2024-01-15T07:02:27;98974.06;;;-13.07;72.20
54122;BME280;40029;58.708;50.190;2024-01-15T07:04:58;98964.13;;;-13.01;72.02
54122;BME280;40029;58.708;50.190;2024-01-15T07:07:29;98973.44;;;-13.23;71.63
54122;BME280;40029;58.708;50.190;2024-01-15T07:10:00;98972.25;;;-13.32;71.97
54122;BME280;40029;58.708;50.190;2024-01-15T07:12:32;98981.31;;;-13.39;72.04
54122;BME280;40029;58.708;50.190;2024-01-15T07:15:22;98995.66;;;-13.18;71.75
54122;BME280;40029;58.708;50.190;2024-01-15T07:17:53;98977.63;;;-13.02;72.02
54122;BME280;40029;58.708;50.190;2024-01-15T07:20:24;98987.88;;;-13.01;71.55
54122;BME280;40029;58.708;50.190;2024-01-15T07:22:55;98979.44;;;-13.22;72.22
54122;BME280;40029;58.708;50.190;2024-01-15T07:28:36;98979.03;;;-13.33;73.36
54122;BME280;40029;58.708;50.190;2024-01-15T07:31:08;98985.06;;;-13.29;73.17
54122;BME280;40029;58.708;50.190;2024-01-15T07:33:39;98978.84;;;-13.37;74.22
54122;BME280;40029;58.708;50.190;2024-01-15T07:36:10;98976.53;;;-13.52;73.92
54122;BME280;40029;58.708;50.190;2024-01-15T07:38:42;98978.09;;;-13.35;73.99
54122;BME280;40029;58.708;50.190;2024-01-15T07:41:14;98982.28;;;-13.35;73.58
54122;BME280;40029;58.708;50.190;2024-01-15T07:43:45;98976.69;;;-13.27;73.23
54122;BME280;40029;58.708;50.190;2024-01-15T07:46:16;98975.19;;;-13.22;73.09
54122;BME280;40029;58.708;50.190;2024-01-15T07:49:06;98966.81;;;-13.19;73.22
54122;BME280;40029;58.708;50.190;2024-01-15T07:52:14;98978.91;;;-13.13;72.74
54122;BME280;40029;58.708;50.190;2024-01-15T07:55:04;98973.59;;;-12.97;72.56
54122;BME280;40029;58.708;50.190;2024-01-15T07:58:13;98977.69;;;-13.01;72.97
54122;BME280;40029;58.708;50.190;2024-01-15T08:00:44;98973.16;;;-12.87;72.92
54122;BME280;40029;58.708;50.190;2024-01-15T08:03:15;98975.22;;;-12.99;72.81
54122;BME280;40029;58.708;50.190;2024-01-15T08:06:06;98980.00;;;-13.07;73.28
54122;BME280;40029;58.708;50.190;2024-01-15T08:08:37;98977.00;;;-12.96;73.43
54122;BME280;40029;58.708;50.190;2024-01-15T08:11:08;98974.66;;;-12.92;73.04
54122;BME280;40029;58.708;50.190;2024-01-15T08:13:39;98987.44;;;-13.11;73.75
54122;BME280;40029;58.708;50.190;2024-01-15T08:16:10;98980.78;;;-13.09;73.47
54122;BME280;40029;58.708;50.190;2024-01-15T08:18:42;98981.78;;;-13.27;74.09
54122;BME280;40029;58.708;50.190;2024-01-15T08:21:14;98974.41;;;-12.98;74.00
54122;BME280;40029;58.708;50.190;2024-01-15T08:23:46;98978.13;;;-12.90;75.09
54122;BME280;40029;58.708;50.190;2024-01-15T08:26:17;98980.44;;;-12.96;74.75
54122;BME280;40029;58.708;50.190;2024-01-15T08:28:48;98985.66;;;-13.14;74.94
54122;BME280;40029;58.708;50.190;2024-01-15T08:31:38;98997.41;;;-13.17;75.38
54122;BME280;40029;58.708;50.190;2024-01-15T08:34:09;98977.06;;;-12.95;75.27
54122;BME280;40029;58.708;50.190;2024-01-15T08:36:40;98987.81;;;-13.02;74.82
54122;BME280;40029;58.708;50.190;2024-01-15T08:39:11;98979.38;;;-13.01;74.48
54122;BME280;40029;58.708;50.190;2024-01-15T08:41:43;98988.63;;;-13.03;74.78
54122;BME280;40029;58.708;50.190;2024-01-15T08:44:14;98983.34;;;-12.87;74.40
54122;BME280;40029;58.708;50.190;2024-01-15T08:46:45;98978.09;;;-12.67;74.11
54122;BME280;40029;58.708;50.190;2024-01-15T08:52:07;98982.63;;;-12.83;74.09
54122;BME280;40029;58.708;50.190;2024-01-15T08:54:38;98980.78;;;-12.87;74.58
54122;BME280;40029;58.708;50.190;2024-01-15T08:57:09;98984.38;;;-12.82;75.26
54122;BME280;40029;58.708;50.190;2024-01-15T08:59:42;98990.63;;;-12.73;74.69
54122;BME280;40029;58.708;50.190;2024-01-15T09:02:13;98986.56;;;-12.91;74.66
54122;BME280;40029;58.708;50.190;2024-01-15T09:04:45;98991.75;;;-12.88;75.27
54122;BME280;40029;58.708;50.190;2024-01-15T09:07:16;98993.88;;;-12.77;74.93
54122;BME280;40029;58.708;50.190;2024-01-15T09:09:47;99004.50;;;-12.65;74.39
54122;BME280;40029;58.708;50.190;2024-01-15T09:12:37;98994.44;;;-12.62;74.47
54122;BME280;40029;58.708;50.190;2024-01-15T09:15:10;98989.22;;;-12.65;74.40
54122;BME280;40029;58.708;50.190;2024-01-15T09:17:41;98991.31;;;-12.55;74.21
54122;BME280;40029;58.708;50.190;2024-01-15T09:20:13;98988.41;;;-12.64;74.91
54122;BME280;40029;58.708;50.190;2024-01-15T09:23:03;98992.34;;;-12.50;74.46
54122;BME280;40029;58.708;50.190;2024-01-15T09:28:44;98988.81;;;-12.53;74.01
54122;BME280;40029;58.708;50.190;2024-01-15T09:31:15;98995.88;;;-12.46;74.15
54122;BME280;40029;58.708;50.190;2024-01-15T09:34:06;98996.72;;;-12.46;74.24
54122;BME280;40029;58.708;50.190;2024-01-15T09:36:40;98990.69;;;-12.25;74.30
54122;BME280;40029;58.708;50.190;2024-01-15T09:39:31;98994.25;;;-12.44;74.67
54122;BME280;40029;58.708;50.190;2024-01-15T09:42:23;98986.53;;;-12.46;75.00
54122;BME280;40029;58.708;50.190;2024-01-15T09:44:56;98989.06;;;-12.23;74.60
54122;BME280;40029;58.708;50.190;2024-01-15T09:48:04;98986.13;;;-12.34;74.82
54122;BME280;40029;58.708;50.190;2024-01-15T09:53:45;98985.03;;;-12.40;75.83
54122;BME280;40029;58.708;50.190;2024-01-15T09:56:16;98987.19;;;-12.51;75.56
54122;BME280;40029;58.708;50.190;2024-01-15T09:58:48;98987.19;;;-12.51;75.51
54122;BME280;40029;58.708;50.190;2024-01-15T10:01:23;98983.59;;;-12.56;75.47
54122;BME280;40029;58.708;50.190;2024-01-15T10:03:55;98977.34;;;-12.42;75.21
54122;BME280;40029;58.708;50.190;2024-01-15T10:06:27;98985.28;;;-12.57;75.35
54122;BME280;40029;58.708;50.190;2024-01-15T10:09:17;98984.31;;;-12.60;76.10
54122;BME280;40029;58.708;50.190;2024-01-15T10:11:48;98986.66;;;-12.65;76.20
54122;BME280;40029;58.708;50.190;2024-01-15T10:14:20;98983.09;;;-12.48;75.89
54122;BME280;40029;58.708;50.190;2024-01-15T10:16:52;98988.59;;;-12.59;75.62
54122;BME280;40029;58.708;50.190;2024-01-15T10:19:41;98985.03;;;-12.40;75.22
54122;BME280;40029;58.708;50.190;2024-01-15T10:22:16;98982.16;;;-12.50;74.96
54122;BME280;40029;58.708;50.190;2024-01-15T10:24:49;98986.13;;;-12.34;74.89
54122;BME280;40029;58.708;50.190;2024-01-15T10:27:39;98986.22;;;-12.55;75.52
54122;BME280;40029;58.708;50.190;2024-01-15T10:30:11;98990.19;;;-12.39;75.73
54122;BME280;40029;58.708;50.190;2024-01-15T10:32:57;98993.38;;;-12.45;75.38
54122;BME280;40029;58.708;50.190;2024-01-15T10:35:34;98983.03;;;-12.49;75.12
54122;BME280;40029;58.708;50.190;2024-01-15T10:38:24;98993.47;;;-12.41;75.52
54122;BME280;40029;58.708;50.190;2024-01-15T10:40:56;98994.41;;;-12.39;74.89
54122;BME280;40029;58.708;50.190;2024-01-15T10:43:27;98996.94;;;-12.39;74.19
54122;BME280;40029;58.708;50.190;2024-01-15T10:45:58;98985.13;;;-12.37;73.87
54122;BME280;40029;58.708;50.190;2024-01-15T10:48:30;98995.63;;;-12.52;73.91
54122;BME280;40029;58.708;50.190;2024-01-15T10:51:20;99000.19;;;-12.44;73.56
54122;BME280;40029;58.708;50.190;2024-01-15T10:53:52;98996.59;;;-12.50;73.53
54122;BME280;40029;58.708;50.190;2024-01-15T10:59:16;98989.31;;;-12.39;72.48
54122;BME280;40029;58.708;50.190;2024-01-15T11:01:48;98982.16;;;-12.50;72.56
54122;BME280;40029;58.708;50.190;2024-01-15T11:04:21;98983.97;;;-12.70;72.66
54122;BME280;40029;58.708;50.190;2024-01-15T11:06:53;98986.00;;;-12.61;72.51
54122;BME280;40029;58.708;50.190;2024-01-15T11:09:24;98993.06;;;-12.54;72.47
54122;BME280;40029;58.708;50.190;2024-01-15T11:12:13;98993.94;;;-12.76;72.95
54122;BME280;40029;58.708;50.190;2024-01-15T11:14:48;98996.84;;;-12.88;72.93
54122;BME280;40029;58.708;50.190;2024-01-15T11:17:20;98992.38;;;-12.72;72.87
54122;BME280;40029;58.708;50.190;2024-01-15T11:20:09;98996.41;;;-12.77;73.01
54122;BME280;40029;58.708;50.190;2024-01-15T11:22:59;98993.72;;;-12.80;72.79
54122;BME280;40029;58.708;50.190;2024-01-15T11:25:35;98992.47;;;-12.69;72.66
54122;BME280;40029;58.708;50.190;2024-01-15T11:28:09;98992.25;;;-12.75;72.98
54122;BME280;40029;58.708;50.190;2024-01-15T11:30:40;98987.16;;;-12.75;73.13
54122;BME280;40029;58.708;50.190;2024-01-15T11:33:33;98991.06;;;-12.84;73.29
54122;BME280;40029;58.708;50.190;2024-01-15T11:38:55;98995.22;;;-12.86;73.44
54122;BME280;40029;58.708;50.190;2024-01-15T11:41:26;99002.34;;;-12.99;73.96
54122;BME280;40029;58.708;50.190;2024-01-15T11:43:57;99004.38;;;-12.91;74.15
54122;BME280;40029;58.708;50.190;2024-01-15T11:46:31;99001.84;;;-12.91;73.47
54122;BME280;40029;58.708;50.190;2024-01-15T11:49:08;99002.28;;;-13.01;73.70
54122;BME280;40029;58.708;50.190;2024-01-15T11:51:43;98997.06;;;-13.04;73.31
54122;BME280;40029;58.708;50.190;2024-01-15T11:54:15;99002.22;;;-13.03;73.88
54122;BME280;40029;58.708;50.190;2024-01-15T11:56:47;99009.22;;;-12.97;73.36
54122;BME280;40029;58.708;50.190;2024-01-15T11:59:38;99004.84;;;-13.01;72.71
54122;BME280;40029;58.708;50.190;2024-01-15T12:02:09;99002.97;;;-13.05;73.78
54122;BME280;40029;58.708;50.190;2024-01-15T12:04:43;99009.69;;;-13.07;73.90
54122;BME280;40029;58.708;50.190;2024-01-15T12:07:14;99004.41;;;-13.12;73.16
54122;BME280;40029;58.708;50.190;2024-01-15T12:09:47;99002.72;;;-12.90;73.44
54122;BME280;40029;58.708;50.190;2024-01-15T12:12:32;99002.56;;;-12.93;72.89
54122;BME280;40029;58.708;50.190;2024-01-15T12:15:06;99005.31;;;-13.10;72.76
54122;BME280;40029;58.708;50.190;2024-01-15T12:17:38;99016.63;;;-13.03;72.98
54122;BME280;40029;58.708;50.190;2024-01-15T12:20:29;99010.91;;;-12.97;72.81
54122;BME280;40029;58.708;50.190;2024-01-15T12:23:01;99011.25;;;-12.88;73.00
54122;BME280;40029;58.708;50.190;2024-01-15T12:25:34;99016.66;;;-12.80;73.15
54122;BME280;40029;58.708;50.190;2024-01-15T12:28:06;99017.06;;;-12.92;73.85
54122;BME280;40029;58.708;50.190;2024-01-15T12:34:04;99018.81;;;-13.12;75.36
54122;BME280;40029;58.708;50.190;2024-01-15T12:36:35;99013.59;;;-13.15;75.53
54122;BME280;40029;58.708;50.190;2024-01-15T12:39:11;99024.81;;;-13.10;75.81
54122;BME280;40029;58.708;50.190;2024-01-15T12:41:42;99029.91;;;-13.10;76.26
54122;BME280;40029;58.708;50.190;2024-01-15T12:44:32;99022.34;;;-13.09;76.56
54122;BME280;40029;58.708;50.190;2024-01-15T12:47:04;99023.22;;;-13.08;75.78
54122;BME280;40029;58.708;50.190;2024-01-15T12:49:39;99031.84;;;-13.05;76.31
54122;BME280;40029;58.708;50.190;2024-01-15T12:52:10;99026.31;;;-13.15;76.80
54122;BME280;40029;58.708;50.190;2024-01-15T12:55:01;99033.00;;;-13.17;76.57
54122;BME280;40029;58.708;50.190;2024-01-15T12:58:09;99039.16;;;-13.12;76.98
54122;BME280;40029;58.708;50.190;2024-01-15T13:00:41;99036.63;;;-13.12;77.52
54122;BME280;40029;58.708;50.190;2024-01-15T13:03:13;99030.72;;;-13.11;77.39
54122;BME280;40029;58.708;50.190;2024-01-15T13:05:44;99030.53;;;-13.16;77.31
54122;BME280;40029;58.708;50.190;2024-01-15T13:08:16;99038.25;;;-13.14;77.13
54122;BME280;40029;58.708;50.190;2024-01-15T13:13:55;99041.84;;;-13.09;77.13
54122;BME280;40029;58.708;50.190;2024-01-15T13:16:26;99040.94;;;-13.10;77.06
54122;BME280;40029;58.708;50.190;2024-01-15T13:19:00;99041.84;;;-13.09;77.44
54122;BME280;40029;58.708;50.190;2024-01-15T13:21:31;99041.31;;;-13.01;77.10
54122;BME280;40029;58.708;50.190;2024-01-15T13:24:02;99039.25;;;-12.88;77.02
54122;BME280;40029;58.708;50.190;2024-01-15T13:26:35;99045.84;;;-12.93;76.98
54122;BME280;40029;58.708;50.190;2024-01-15T13:29:09;99052.47;;;-12.97;76.96
54122;BME280;40029;58.708;50.190;2024-01-15T13:31:40;99051.78;;;-12.93;77.00
54122;BME280;40029;58.708;50.190;2024-01-15T13:34:12;99048.38;;;-12.93;76.95
54122;BME280;40029;58.708;50.190;2024-01-15T13:39:32;99056.50;;;-13.02;77.42
54122;BME280;40029;58.708;50.190;2024-01-15T13:42:04;99053.25;;;-12.99;77.90
54122;BME280;40029;58.708;50.190;2024-01-15T13:44:35;99056.22;;;-13.10;77.10
54122;BME280;40029;58.708;50.190;2024-01-15T13:47:06;99065.09;;;-13.21;77.47
54122;BME280;40029;58.708;50.190;2024-01-15T13:52:45;99057.41;;;-13.02;77.77
54122;BME280;40029;58.708;50.190;2024-01-15T13:55:16;99055.97;;;-13.16;77.13
54122;BME280;40029;58.708;50.190;2024-01-15T14:00:57;99060.41;;;-12.89;78.50
54122;BME280;40029;58.708;50.190;2024-01-15T14:03:28;99057.31;;;-12.82;77.92
54122;BME280;40029;58.708;50.190;2024-01-15T14:06:18;99051.75;;;-12.94;77.23
54122;BME280;40029;58.708;50.190;2024-01-15T14:08:50;99055.41;;;-12.88;77.56
54122;BME280;40029;58.708;50.190;2024-01-15T14:11:21;99059.78;;;-12.84;77.00
54122;BME280;40029;58.708;50.190;2024-01-15T14:14:12;99054.34;;;-12.93;76.67
54122;BME280;40029;58.708;50.190;2024-01-15T14:16:43;99051.78;;;-12.93;76.55